createdAt,value
2023-04-29T00:02:18.059Z,43.98
2023-04-29T00:05:03.796Z,43.93
2023-04-29T00:07:49.397Z,43.96
2023-04-29T00:10:34.730Z,43.75
2023-04-29T00:13:20.292Z,43.90
2023-04-29T00:16:05.743Z,43.70
2023-04-29T00:18:51.067Z,44.07
2023-04-29T00:21:39.443Z,43.71
2023-04-29T00:24:24.840Z,43.84
2023-04-29T00:27:10.085Z,43.58
2023-04-29T00:29:55.482Z,43.78
2023-04-29T00:32:40.926Z,43.42
2023-04-29T00:35:26.274Z,43.99
2023-04-29T00:38:11.644Z,43.42
2023-04-29T00:40:57.372Z,43.55
2023-04-29T00:43:42.585Z,43.80
2023-04-29T00:46:28.118Z,43.55
2023-04-29T00:49:13.445Z,43.71
2023-04-29T00:51:58.736Z,43.70
2023-04-29T00:54:44.138Z,43.68
2023-04-29T00:57:29.590Z,43.93
2023-04-29T01:00:14.812Z,43.80
2023-04-29T01:03:00.295Z,43.79
2023-04-29T01:05:45.511Z,43.41
2023-04-29T01:08:30.964Z,43.69
2023-04-29T01:11:16.243Z,43.49
2023-04-29T01:14:01.548Z,43.96
2023-04-29T01:16:46.902Z,43.50
2023-04-29T01:19:32.123Z,43.61
2023-04-29T01:22:17.591Z,43.27
2023-04-29T01:25:02.982Z,43.58
2023-04-29T01:27:48.325Z,43.71
2023-04-29T01:30:33.686Z,43.32
2023-04-29T01:33:19.071Z,43.50
2023-04-29T01:36:04.380Z,43.67
2023-04-29T01:38:49.851Z,43.87
2023-04-29T01:41:35.436Z,43.56
2023-04-29T01:44:20.881Z,43.49
2023-04-29T01:47:06.364Z,43.24
2023-04-29T01:49:51.830Z,43.30
2023-04-29T01:52:37.041Z,43.76
2023-04-29T01:55:22.482Z,43.68
2023-04-29T01:58:07.590Z,43.66
2023-04-29T02:00:53.029Z,43.72
2023-04-29T02:03:38.662Z,43.98
2023-04-29T02:06:23.672Z,44.03
2023-04-29T02:09:08.753Z,43.78
2023-04-29T02:11:54.046Z,43.54
2023-04-29T02:14:39.414Z,43.79
2023-04-29T02:17:24.728Z,43.59
2023-04-29T02:20:10.230Z,43.54
2023-04-29T02:22:55.833Z,43.56
2023-04-29T02:25:40.820Z,43.41
2023-04-29T02:28:26.416Z,43.45
2023-04-29T02:31:11.810Z,43.59
2023-04-29T02:33:56.966Z,43.49
2023-04-29T02:36:42.443Z,43.60
2023-04-29T02:39:27.623Z,43.54
2023-04-29T02:42:12.976Z,43.59
2023-04-29T02:44:58.348Z,43.42
2023-04-29T02:47:43.760Z,43.64
2023-04-29T02:50:29.052Z,43.41
2023-04-29T02:53:14.248Z,43.57
2023-04-29T02:55:59.830Z,43.61
2023-04-29T02:58:45.084Z,43.40
2023-04-29T03:01:29.826Z,43.51
2023-04-29T03:04:15.293Z,43.33
2023-04-29T03:07:00.577Z,43.54
2023-04-29T03:09:46.154Z,43.41
2023-04-29T03:12:31.480Z,43.47
2023-04-29T03:15:16.861Z,43.43
2023-04-29T03:18:02.319Z,43.41
2023-04-29T03:20:47.785Z,43.40
2023-04-29T03:23:33.229Z,43.40
2023-04-29T03:26:18.650Z,43.14
2023-04-29T03:29:04.184Z,43.39
2023-04-29T03:31:49.777Z,43.13
2023-04-29T03:34:35.153Z,43.53
2023-04-29T03:37:20.584Z,43.16
2023-04-29T03:40:05.933Z,43.05
2023-04-29T03:42:51.553Z,43.01
2023-04-29T03:45:36.989Z,43.26
2023-04-29T03:48:22.491Z,43.34
2023-04-29T03:51:07.684Z,43.33
2023-04-29T03:53:53.064Z,43.36
2023-04-29T03:56:38.555Z,43.22
2023-04-29T03:59:23.749Z,43.17
2023-04-29T04:02:08.942Z,42.96
2023-04-29T04:04:54.182Z,43.08
2023-04-29T04:07:39.587Z,43.52
2023-04-29T04:10:24.418Z,43.37
2023-04-29T04:13:09.845Z,43.67
2023-04-29T04:15:55.082Z,42.99
2023-04-29T04:18:40.439Z,43.00
2023-04-29T04:21:25.665Z,43.59
2023-04-29T04:24:11.081Z,43.59
2023-04-29T04:26:56.516Z,43.31
2023-04-29T04:29:42.128Z,43.39
2023-04-29T04:32:27.382Z,43.38
2023-04-29T04:35:12.912Z,43.36
2023-04-29T04:37:58.257Z,43.22
2023-04-29T04:40:43.790Z,43.13
2023-04-29T04:43:29.052Z,43.02
2023-04-29T04:46:14.556Z,43.01
2023-04-29T04:48:59.879Z,42.87
2023-04-29T04:51:45.207Z,43.13
2023-04-29T04:54:30.585Z,42.94
2023-04-29T04:57:16.058Z,43.51
2023-04-29T05:00:01.308Z,43.02
2023-04-29T05:02:46.692Z,43.14
2023-04-29T05:05:31.889Z,42.81
2023-04-29T05:08:17.280Z,43.11
2023-04-29T05:11:02.384Z,42.75
2023-04-29T05:13:47.733Z,43.24
2023-04-29T05:16:33.130Z,43.09
2023-04-29T05:19:18.336Z,43.07
2023-04-29T05:22:03.620Z,43.23
2023-04-29T05:24:49.014Z,43.34
2023-04-29T05:27:35.825Z,43.30
2023-04-29T05:30:20.888Z,43.21
2023-04-29T05:33:09.260Z,43.18
2023-04-29T05:35:54.467Z,43.15
2023-04-29T05:38:39.738Z,43.16
2023-04-29T05:41:25.174Z,42.99
2023-04-29T05:44:10.244Z,43.36
2023-04-29T05:46:55.536Z,43.04
2023-04-29T05:49:40.755Z,43.50
2023-04-29T05:52:26.018Z,43.36
2023-04-29T05:55:11.431Z,43.10
2023-04-29T05:57:56.619Z,43.12
2023-04-29T06:00:42.079Z,43.19
2023-04-29T06:03:27.787Z,43.50
2023-04-29T06:06:13.508Z,43.63
2023-04-29T06:08:58.923Z,43.56
2023-04-29T06:11:43.932Z,43.60
2023-04-29T06:14:29.605Z,43.80
2023-04-29T06:17:14.842Z,44.05
2023-04-29T06:20:03.316Z,44.11
2023-04-29T06:22:48.415Z,44.24
2023-04-29T06:25:33.771Z,44.58
2023-04-29T06:28:19.104Z,44.91
2023-04-29T06:31:04.420Z,45.02
2023-04-29T06:33:49.478Z,46.02
2023-04-29T06:36:34.949Z,46.12
2023-04-29T06:39:19.914Z,46.03
2023-04-29T06:42:05.359Z,45.88
2023-04-29T06:44:50.464Z,45.88
2023-04-29T06:47:35.847Z,46.54
2023-04-29T06:50:21.233Z,46.49
2023-04-29T06:53:07.716Z,46.11
2023-04-29T06:55:52.955Z,45.67
2023-04-29T06:58:38.351Z,45.34
2023-04-29T07:01:23.757Z,45.63
2023-04-29T07:04:11.548Z,45.40
2023-04-29T07:06:56.538Z,45.16
2023-04-29T07:09:41.935Z,45.10
2023-04-29T07:12:27.537Z,45.23
2023-04-29T07:15:12.735Z,45.77
2023-04-29T07:17:58.105Z,45.67
2023-04-29T07:20:43.392Z,45.68
2023-04-29T07:23:28.932Z,45.37
2023-04-29T07:26:14.289Z,45.45
2023-04-29T07:28:59.617Z,45.26
2023-04-29T07:31:44.988Z,45.59
2023-04-29T07:34:30.318Z,45.55
2023-04-29T07:37:15.553Z,45.32
2023-04-29T07:40:00.918Z,45.35
2023-04-29T07:42:46.286Z,45.43
2023-04-29T07:45:31.745Z,45.35
2023-04-29T07:48:18.233Z,45.55
2023-04-29T07:51:03.581Z,45.44
2023-04-29T07:53:48.983Z,45.16
2023-04-29T07:56:34.363Z,45.04
2023-04-29T07:59:19.640Z,44.85
2023-04-29T08:02:04.757Z,44.88
2023-04-29T08:04:50.267Z,44.91
2023-04-29T08:07:35.946Z,44.63
2023-04-29T08:10:21.204Z,44.49
2023-04-29T08:13:06.507Z,44.43
2023-04-29T08:15:52.062Z,45.08
2023-04-29T08:18:37.313Z,44.68
2023-04-29T08:21:22.750Z,45.12
2023-04-29T08:24:08.619Z,45.12
2023-04-29T08:26:53.620Z,44.84
2023-04-29T08:29:38.969Z,44.72
2023-04-29T08:32:24.418Z,44.84
2023-04-29T08:35:09.596Z,44.82
2023-04-29T08:37:55.122Z,44.85
2023-04-29T08:40:42.790Z,44.96
2023-04-29T08:43:27.872Z,44.70
2023-04-29T08:46:13.233Z,44.41
2023-04-29T08:48:58.595Z,44.30
2023-04-29T08:51:43.773Z,44.38
2023-04-29T08:54:32.132Z,44.76
2023-04-29T08:57:20.551Z,44.46
2023-04-29T09:00:05.806Z,44.16
2023-04-29T09:02:51.080Z,44.42
2023-04-29T09:05:36.321Z,44.28
2023-04-29T09:08:21.802Z,44.43
2023-04-29T09:11:06.566Z,44.41
2023-04-29T09:13:51.833Z,43.90
2023-04-29T09:16:37.132Z,44.32
2023-04-29T09:19:22.959Z,44.03
2023-04-29T09:22:08.212Z,43.93
2023-04-29T09:24:53.554Z,43.69
2023-04-29T09:27:38.848Z,43.85
2023-04-29T09:30:24.334Z,44.18
2023-04-29T09:33:09.776Z,43.85
2023-04-29T09:35:55.175Z,43.90
2023-04-29T09:38:40.394Z,44.22
2023-04-29T09:41:25.898Z,44.15
2023-04-29T09:44:11.196Z,43.55
2023-04-29T09:46:56.770Z,43.99
2023-04-29T09:49:41.734Z,43.56
2023-04-29T09:52:27.120Z,43.41
2023-04-29T09:55:12.631Z,43.43
2023-04-29T09:57:57.806Z,43.72
2023-04-29T10:00:43.231Z,45.79
2023-04-29T10:03:28.518Z,45.34
2023-04-29T10:06:13.505Z,44.82
2023-04-29T10:08:58.803Z,43.88
2023-04-29T10:11:44.180Z,43.59
2023-04-29T10:14:29.438Z,43.66
2023-04-29T10:17:14.869Z,44.18
2023-04-29T10:20:00.156Z,44.40
2023-04-29T10:22:45.583Z,44.66
2023-04-29T10:25:30.922Z,44.90
2023-04-29T10:28:16.415Z,44.65
2023-04-29T10:31:01.826Z,44.80
2023-04-29T10:33:47.383Z,44.84
2023-04-29T10:36:32.636Z,44.53
2023-04-29T10:39:18.164Z,44.79
2023-04-29T10:42:03.287Z,44.35
2023-04-29T10:44:48.661Z,44.36
2023-04-29T10:47:34.235Z,44.32
2023-04-29T10:50:19.736Z,44.37
2023-04-29T10:53:05.237Z,44.33
2023-04-29T10:55:50.417Z,44.40
2023-04-29T10:58:35.846Z,44.17
2023-04-29T11:01:21.335Z,44.05
2023-04-29T11:04:06.614Z,43.98
2023-04-29T11:06:52.049Z,43.89
2023-04-29T11:09:37.382Z,44.06
2023-04-29T11:12:22.577Z,44.11
2023-04-29T11:15:08.112Z,43.96
2023-04-29T11:17:53.380Z,44.02
2023-04-29T11:20:38.968Z,43.81
2023-04-29T11:23:25.376Z,43.78
2023-04-29T11:26:11.713Z,43.86
2023-04-29T11:28:57.138Z,43.53
2023-04-29T11:31:42.574Z,43.66
2023-04-29T11:34:27.832Z,43.78
2023-04-29T11:37:13.283Z,43.66
2023-04-29T11:39:58.730Z,43.83
2023-04-29T11:42:44.213Z,43.70
2023-04-29T11:45:29.523Z,43.88
2023-04-29T11:48:15.088Z,43.99
2023-04-29T11:50:59.852Z,43.41
2023-04-29T11:53:45.314Z,43.34
2023-04-29T11:56:30.598Z,43.15
2023-04-29T11:59:15.966Z,43.04
2023-04-29T12:02:03.309Z,43.30
2023-04-29T12:04:48.523Z,43.22
2023-04-29T12:07:33.708Z,43.25
2023-04-29T12:10:19.096Z,43.37
2023-04-29T12:13:04.430Z,43.38
2023-04-29T12:15:49.830Z,43.26
2023-04-29T12:18:35.018Z,43.54
2023-04-29T12:21:20.618Z,43.61
2023-04-29T12:24:05.989Z,43.68
2023-04-29T12:26:51.662Z,44.25
2023-04-29T12:29:36.913Z,45.17
2023-04-29T12:32:22.478Z,45.26
2023-04-29T12:35:10.939Z,45.12
2023-04-29T12:37:56.291Z,45.08
2023-04-29T12:40:41.706Z,45.40
2023-04-29T12:43:27.186Z,45.20
2023-04-29T12:46:12.389Z,45.58
2023-04-29T12:48:57.854Z,45.26
2023-04-29T12:51:43.091Z,45.42
2023-04-29T12:54:28.306Z,45.83
2023-04-29T12:57:13.614Z,45.62
2023-04-29T12:59:58.953Z,45.79
2023-04-29T13:02:44.557Z,46.22
2023-04-29T13:05:29.590Z,45.62
2023-04-29T13:11:00.327Z,45.36
2023-04-29T13:13:45.773Z,45.74
2023-04-29T13:16:31.107Z,46.53
2023-04-29T13:19:38.373Z,45.52
2023-04-29T13:22:24.418Z,45.25
2023-04-29T13:25:09.827Z,45.75
2023-04-29T13:27:55.431Z,45.67
2023-04-29T13:30:40.489Z,45.63
2023-04-29T13:33:25.837Z,45.92
2023-04-29T13:36:10.908Z,45.82
2023-04-29T13:38:56.358Z,46.27
2023-04-29T13:41:44.585Z,46.09
2023-04-29T13:44:44.444Z,46.03
2023-04-29T13:47:45.969Z,45.88
2023-04-29T13:57:07.726Z,45.70
2023-04-29T13:59:38.052Z,45.84
2023-04-29T14:02:26.460Z,45.78
2023-04-29T14:05:12.137Z,45.05
2023-04-29T14:07:57.255Z,44.97
2023-04-29T14:10:42.642Z,45.14
2023-04-29T14:13:27.804Z,45.17
2023-04-29T14:16:13.188Z,44.73
2023-04-29T14:18:58.699Z,44.69
2023-04-29T14:21:44.542Z,44.80
2023-04-29T14:24:29.586Z,44.44
2023-04-29T14:27:14.982Z,44.09
2023-04-29T14:30:00.384Z,44.47
2023-04-29T14:32:45.542Z,44.41
2023-04-29T14:35:30.984Z,44.62
2023-04-29T14:38:16.359Z,44.64
2023-04-29T14:41:01.757Z,44.79
2023-04-29T14:43:47.167Z,44.69
2023-04-29T14:46:32.572Z,44.21
2023-04-29T14:49:17.799Z,43.72
2023-04-29T14:52:03.197Z,43.43
2023-04-29T14:54:48.498Z,43.44
2023-04-29T14:57:34.102Z,43.47
2023-04-29T15:00:19.410Z,43.25
2023-04-29T15:03:04.776Z,43.07
2023-04-29T15:05:50.138Z,42.44
2023-04-29T15:08:35.625Z,42.38
2023-04-29T15:11:21.040Z,42.71
2023-04-29T15:14:06.314Z,42.81
2023-04-29T15:16:51.660Z,42.59
2023-04-29T15:19:36.819Z,41.86
2023-04-29T15:22:22.222Z,41.68
2023-04-29T15:25:07.389Z,41.73
2023-04-29T15:27:52.876Z,41.44
2023-04-29T15:30:38.151Z,41.77
2023-04-29T15:33:23.489Z,41.86
2023-04-29T15:36:08.993Z,41.22
2023-04-29T15:38:54.322Z,40.89
2023-04-29T15:41:39.776Z,40.77
2023-04-29T15:44:25.122Z,40.89
2023-04-29T15:47:10.449Z,40.99
2023-04-29T15:49:55.856Z,40.23
2023-04-29T15:52:41.215Z,39.49
2023-04-29T15:55:26.715Z,39.60
2023-04-29T15:58:12.068Z,39.46
2023-04-29T16:00:57.443Z,39.07
2023-04-29T16:03:42.940Z,39.48
2023-04-29T16:06:28.201Z,40.52
2023-04-29T16:09:13.538Z,41.43
2023-04-29T16:11:58.957Z,41.56
2023-04-29T16:14:44.251Z,42.18
2023-04-29T16:17:29.775Z,42.49
2023-04-29T16:20:17.920Z,42.67
2023-04-29T16:23:03.299Z,42.65
2023-04-29T16:25:48.895Z,42.61
2023-04-29T16:28:34.144Z,43.03
2023-04-29T16:31:19.125Z,42.53
2023-04-29T16:34:04.383Z,43.03
2023-04-29T16:36:49.446Z,43.21
2023-04-29T16:39:34.822Z,43.32
2023-04-29T16:42:20.223Z,43.61
2023-04-29T16:45:05.632Z,43.15
2023-04-29T16:47:51.048Z,42.92
2023-04-29T16:50:36.435Z,42.90
2023-04-29T16:53:21.801Z,43.39
2023-04-29T16:56:07.158Z,43.01
2023-04-29T16:58:52.614Z,43.14
2023-04-29T17:01:37.894Z,43.13
2023-04-29T17:04:23.256Z,43.89
2023-04-29T17:07:08.495Z,43.92
2023-04-29T17:09:54.207Z,44.12
2023-04-29T17:12:39.486Z,44.22
2023-04-29T17:15:24.750Z,44.21
2023-04-29T17:18:10.209Z,43.88
2023-04-29T17:20:55.460Z,44.34
2023-04-29T17:23:40.955Z,44.73
2023-04-29T17:26:26.277Z,44.26
2023-04-29T17:29:11.742Z,43.72
2023-04-29T17:31:57.339Z,43.92
2023-04-29T17:34:42.548Z,44.65
2023-04-29T17:37:27.831Z,45.07
2023-04-29T17:40:13.210Z,45.27
2023-04-29T17:42:58.632Z,45.81
2023-04-29T17:45:43.858Z,45.90
2023-04-29T17:48:29.107Z,46.27
2023-04-29T17:51:14.565Z,45.83
2023-04-29T17:53:59.863Z,45.83
2023-04-29T17:56:45.214Z,45.96
2023-04-29T17:59:30.429Z,45.94
2023-04-29T18:02:15.652Z,45.50
2023-04-29T18:05:01.169Z,44.99
2023-04-29T18:07:46.515Z,45.40
2023-04-29T18:10:32.023Z,45.80
2023-04-29T18:13:18.109Z,45.81
2023-04-29T18:16:04.051Z,45.20
2023-04-29T18:18:49.799Z,45.43
2023-04-29T18:21:35.051Z,45.44
2023-04-29T18:24:20.663Z,45.58
2023-04-29T18:27:05.830Z,46.46
2023-04-29T18:29:51.296Z,46.30
2023-04-29T18:32:36.806Z,45.93
2023-04-29T18:35:22.137Z,45.79
2023-04-29T18:38:08.098Z,45.71
2023-04-29T18:40:53.509Z,45.94
2023-04-29T18:43:38.810Z,46.17
2023-04-29T18:46:24.226Z,46.01
2023-04-29T18:49:09.472Z,45.90
2023-04-29T18:51:54.875Z,46.48
2023-04-29T18:54:40.349Z,46.28
2023-04-29T18:57:25.973Z,45.87
2023-04-29T19:00:11.670Z,46.03
2023-04-29T19:02:56.659Z,46.24
2023-04-29T19:05:42.228Z,46.08
2023-04-29T19:08:27.518Z,46.27
2023-04-29T19:11:12.948Z,45.81
2023-04-29T19:13:58.218Z,45.93
2023-04-29T19:16:44.126Z,45.88
2023-04-29T19:19:29.708Z,45.94
2023-04-29T19:22:14.978Z,45.83
2023-04-29T19:25:00.323Z,45.77
2023-04-29T19:27:45.649Z,45.61
2023-04-29T19:30:31.120Z,45.68
2023-04-29T19:33:16.558Z,45.72
2023-04-29T19:36:01.940Z,45.59
2023-04-29T19:38:47.594Z,45.69
2023-04-29T19:41:34.938Z,45.71
2023-04-29T19:44:20.363Z,45.53
2023-04-29T19:47:05.775Z,45.87
2023-04-29T19:49:50.988Z,45.76
2023-04-29T19:52:36.264Z,45.85
2023-04-29T19:55:21.567Z,45.17
2023-04-29T19:58:07.024Z,45.19
2023-04-29T20:00:52.422Z,45.53
2023-04-29T20:03:37.776Z,45.29
2023-04-29T20:06:23.304Z,45.37
2023-04-29T20:09:08.508Z,45.25
2023-04-29T20:11:56.920Z,44.92
2023-04-29T20:14:42.376Z,45.50
2023-04-29T20:17:27.702Z,45.44
2023-04-29T20:20:13.048Z,45.42
2023-04-29T20:22:58.516Z,45.38
2023-04-29T20:25:43.987Z,45.15
2023-04-29T20:28:29.184Z,45.13
2023-04-29T20:31:14.453Z,45.22
2023-04-29T20:34:00.152Z,44.96
2023-04-29T20:36:45.381Z,45.43
2023-04-29T20:39:33.946Z,44.95
2023-04-29T20:42:19.135Z,45.32
2023-04-29T20:45:04.317Z,45.32
2023-04-29T20:47:50.978Z,45.30
2023-04-29T20:50:36.232Z,45.43
2023-04-29T20:53:21.640Z,45.60
2023-04-29T20:56:07.125Z,45.56
2023-04-29T20:58:52.420Z,45.69
2023-04-29T21:01:38.148Z,45.62
2023-04-29T21:04:23.372Z,45.39
2023-04-29T21:07:08.698Z,45.48
2023-04-29T21:09:54.371Z,45.40
2023-04-29T21:12:40.235Z,45.34
2023-04-29T21:15:25.607Z,45.49
2023-04-29T21:18:10.902Z,45.56
2023-04-29T21:20:56.328Z,45.41
2023-04-29T21:23:41.764Z,45.66
2023-04-29T21:26:26.782Z,45.80
2023-04-29T21:29:12.346Z,45.50
2023-04-29T21:31:57.651Z,45.58
2023-04-29T21:34:43.082Z,45.19
2023-04-29T21:37:28.407Z,45.27
2023-04-29T21:40:13.525Z,45.35
2023-04-29T21:42:59.043Z,45.44
2023-04-29T21:45:44.277Z,45.53
2023-04-29T21:48:29.723Z,45.35
2023-04-29T21:51:15.087Z,45.06
2023-04-29T21:54:00.465Z,44.97
2023-04-29T21:56:46.039Z,45.58
2023-04-29T21:59:31.423Z,45.28
2023-04-29T22:02:16.804Z,45.49
2023-04-29T22:05:02.130Z,45.76
2023-04-29T22:07:47.615Z,45.61
2023-04-29T22:10:33.099Z,45.43
2023-04-29T22:13:18.562Z,45.49
2023-04-29T22:16:04.098Z,45.24
2023-04-29T22:18:49.352Z,45.24
2023-04-29T22:21:35.024Z,44.94
2023-04-29T22:24:23.457Z,45.25
2023-04-29T22:27:08.852Z,45.23
2023-04-29T22:29:54.657Z,45.36
2023-04-29T22:32:40.235Z,45.36
2023-04-29T22:35:25.498Z,45.32
2023-04-29T22:38:11.191Z,45.17
2023-04-29T22:40:56.464Z,45.34
2023-04-29T22:43:41.859Z,45.02
2023-04-29T22:46:27.183Z,45.24
2023-04-29T22:49:12.418Z,44.86
2023-04-29T22:51:57.790Z,45.04
2023-04-29T22:54:43.142Z,44.88
2023-04-29T22:57:28.204Z,45.08
2023-04-29T23:00:13.724Z,45.10
2023-04-29T23:02:58.695Z,45.04
2023-04-29T23:05:43.929Z,45.41
2023-04-29T23:08:29.379Z,45.51
2023-04-29T23:11:14.773Z,45.25
2023-04-29T23:14:00.251Z,44.64
2023-04-29T23:16:45.593Z,45.08
2023-04-29T23:19:30.987Z,44.85
2023-04-29T23:22:16.599Z,45.20
2023-04-29T23:25:01.952Z,44.92
2023-04-29T23:27:47.388Z,44.69
2023-04-29T23:33:35.940Z,45.02
2023-04-29T23:36:21.166Z,44.83
2023-04-29T23:39:06.613Z,44.92
2023-04-29T23:41:51.992Z,44.96
2023-04-29T23:44:37.463Z,44.78
2023-04-29T23:47:22.806Z,44.49
2023-04-29T23:50:08.386Z,44.98
2023-04-29T23:52:53.627Z,44.82
2023-04-29T23:55:38.863Z,44.72
2023-04-29T23:58:23.905Z,45.04
